ADDS METAR Data INFO
IDs: Format: Raw Decoded Include TAF

Data at: 1530 UTC 18 Jun 2018

KMCN 181453Z 29005KT 10SM SCT027 30/23 A3014 RMK AO2 SLP200 T03000228 58000
KMCN 181353Z 00000KT 10SM CLR 28/23 A3015 RMK AO2 SLP204 T02830228
KMCN 181253Z 00000KT 10SM CLR 26/23 A3015 RMK AO2 SLP204 T02610228
KMCN 181153Z 00000KT 10SM FEW034 24/23 A3014 RMK AO2 SLP201 T02390228 10239 20217 51009
KMCN 181053Z AUTO 00000KT 4SM BR CLR 22/22 A3014 RMK AO2 SLP200 T02170217
KMCN 180953Z AUTO 00000KT 9SM CLR 22/22 A3012 RMK AO2 SLP196 T02170217
KMCN 180915Z AUTO 00000KT 10SM SCT024 SCT037 22/22 A3011 RMK AO2 T02220222
KMCN 180900Z AUTO 00000KT 10SM BKN024 BKN035 22/22 A3011 RMK AO2 T02220217
KMCN 180853Z AUTO 00000KT 10SM SCT024 BKN032 22/22 A3011 RMK AO2 SLP191 T02220217 53000
KMCN 180753Z AUTO 00000KT 10SM FEW029 22/22 A3010 RMK AO2 SLP188 T02220222
KMCN 180653Z AUTO 00000KT 10SM CLR 23/22 A3010 RMK AO2 SLP186 T02280222
KMCN 180553Z AUTO 00000KT 10SM CLR 22/22 A3011 RMK AO2 SLP191 T02220222 10278 20222 58010
KMCN 180453Z AUTO 00000KT 10SM CLR 24/23 A3013 RMK AO2 SLP198 T02390233 403110211
KMCN 180353Z AUTO 23003KT 10SM FEW042 24/24 A3013 RMK AO2 SLP199 T02440239
KMCN 180253Z AUTO 00000KT 10SM CLR 25/24 A3014 RMK AO2 SLP201 T02500239 53018
KMCN 180153Z AUTO 27004KT 10SM FEW035 26/24 A3012 RMK AO2 SLP193 T02560239
KMCN 180053Z AUTO 28003KT 10SM CLR 27/23 A3011 RMK AO2 LTG DSNT NW SLP190 T02670233
KMCN 172353Z AUTO 23004KT 10SM FEW100 28/23 A3009 RMK AO2 SLP183 T02780233 10311 20278 55001
KMCN 172253Z 14003KT 10SM CLR 28/23 A3009 RMK AO2 SLP183 T02830233
KMCN 172153Z 11006KT 10SM FEW033 29/24 A3008 RMK AO2 SLP181 T02940239
KMCN 172110Z 17004KT 10SM FEW035 SCT044 BKN050 31/22 A3009 RMK AO2 T03060222
KMCN 172053Z 00000KT 10SM VCTS FEW050 FEW065 31/22 A3009 RMK AO2 LTG DSNT NE SLP184 T03110217 58012
KMCN 171953Z 28004KT 10SM FEW023 FEW090 30/23 A3011 RMK AO2 SLP192 T03000233
KMCN 171946Z VRB04KT 10SM FEW023 SCT090 30/23 A3012 RMK AO2 T03000233
KMCN 171939Z VRB03KT 10SM BKN023 BKN090 29/23 A3012 RMK AO2 LTG DSNT N T02940233
KMCN 171930Z 21004KT 10SM SCT023 BKN090 29/23 A3012 RMK AO2 LTG DSNT N T02940233
KMCN 171853Z VRB04KT 10SM FEW020 BKN025 BKN080 29/24 A3012 RMK AO2 LTG DSNT E SLP196 T02890239
KMCN 171849Z 23003KT 10SM BKN025 BKN080 29/23 A3013 RMK AO2 LTG DSNT E
KMCN 171834Z VRB04KT 10SM SCT016 SCT024 BKN080 29/23 A3013 RMK AO2 LTG DSNT E T02940233
KMCN 171810Z VRB03KT 10SM BKN015 BKN090 28/23 A3013 RMK AO2 LTG DSNT E T02780233
KMCN 171753Z 00000KT 10SM SCT013 SCT090 28/24 A3014 RMK AO2 SLP199 60000 T02780239 10278 20228 58010
KMCN 171712Z 16004KT 10SM BKN009 BKN032 OVC043 26/23 A3015 RMK AO2 T02560233
KMCN 171704Z 19005KT 10SM BKN011 OVC036 26/24 A3015 RMK AO2 T02560239
KMCN 171653Z 00000KT 10SM SCT013 BKN031 OVC060 26/23 A3016 RMK AO2 RAB28E41 SLP207 P0000 T02610233
KMCN 171553Z 04004KT 9SM FEW012 OVC019 25/23 A3017 RMK AO2 LTG DSNT W RAB30E49 SLP212 P0000 T02500228
KMCN 171530Z 02005KT 10SM -RA BKN010 BKN017 OVC030 25/23 A3017 RMK AO2 LTG DSNT W RAB30 P0000 T02500228
KMCN 171453Z 00000KT 10SM FEW015 BKN020 OVC049 26/23 A3017 RMK AO2 LTG DSNT W RAB27E45 SLP210 P0000 60000 T02560233 51013
KMCN 171401Z 24003KT 10SM SCT015 BKN020 OVC040 26/23 A3017 RMK AO2 LTG DSNT SW AND W T02610228
KMCN 171353Z VRB03KT 10SM SCT015 BKN032 OVC040 27/23 A3016 RMK AO2 LTG DSNT SW AND W SLP208 T02670228
KMCN 171300Z 00000KT 10SM OVC016 24/22 A3016 RMK AO2 LTG DSNT SW T02390217
KMCN 171253Z 00000KT 10SM OVC014 24/22 A3016 RMK AO2 LTG DSNT SW SLP208 T02390217
KMCN 171153Z 00000KT 10SM OVC014 23/21 A3013 RMK AO2 SLP197 T02280211 10244 20211 53016
KMCN 171137Z 12003KT 10SM BKN014 BKN120 23/22 A3012 RMK AO2 T02280217
KMCN 171053Z AUTO 18003KT 10SM FEW014 22/21 A3009 RMK AO2 SLP186 T02170211
KMCN 170953Z AUTO 00000KT 10SM CLR 21/21 A3009 RMK AO2 SLP183 T02110206
KMCN 170906Z AUTO 00000KT 10SM SCT023 22/21 A3008 RMK AO2 T02170206
KMCN 170853Z AUTO 03004KT 10SM BKN023 22/20 A3008 RMK AO2 SLP181 T02220200 56004
KMCN 170822Z AUTO 01004KT 10SM BKN023 23/21 A3008 RMK AO2 T02280211
KMCN 170753Z AUTO 00000KT 10SM CLR 22/21 A3008 RMK AO2 SLP181 T02220211
KMCN 170653Z AUTO 03004KT 10SM CLR 23/21 A3009 RMK AO2 SLP183 T02330211
KMCN 170553Z AUTO 05008KT 10SM CLR 24/22 A3009 RMK AO2 SLP185 T02440217 10289 20239 55009
KMCN 170453Z AUTO 00000KT 10SM CLR 26/21 A3008 RMK AO2 SLP180 T02560211 403170217
KMCN 170353Z AUTO 22009KT 10SM CLR 25/22 A3006 RMK AO2 LTG DSNT NW SLP176 T02500217